sensor_id;sensor_type;location;lat;lon;timestamp;pressure;altitude;pressure_sealevel;temperature;humidity
53659;BME280;41524;35.624;139.698;2023-05-10T00:00:12;101269.00;;;16.00;37.89
53659;BME280;41524;35.624;139.698;2023-05-10T00:05:11;101260.00;;;18.90;33.84
53659;BME280;41524;35.624;139.698;2023-05-10T00:10:12;101263.00;;;17.45;35.26
53659;BME280;41524;35.624;139.698;2023-05-10T00:15:12;101275.00;;;16.17;37.52
53659;BME280;41524;35.624;139.698;2023-05-10T00:20:12;101284.00;;;16.03;37.15
53659;BME280;41524;35.624;139.698;2023-05-10T00:25:11;101285.00;;;16.88;36.96
53659;BME280;41524;35.624;139.698;2023-05-10T00:30:10;101283.00;;;15.53;37.91
53659;BME280;41524;35.624;139.698;2023-05-10T00:35:12;101276.00;;;18.22;35.66
53659;BME280;41524;35.624;139.698;2023-05-10T00:40:12;101280.00;;;17.21;36.27
53659;BME280;41524;35.624;139.698;2023-05-10T00:45:18;101272.00;;;19.83;33.70
53659;BME280;41524;35.624;139.698;2023-05-10T00:50:17;101268.00;;;17.57;36.28
53659;BME280;41524;35.624;139.698;2023-05-10T00:55:15;101264.00;;;18.08;35.34
53659;BME280;41524;35.624;139.698;2023-05-10T01:00:17;101261.00;;;19.44;33.52
53659;BME280;41524;35.624;139.698;2023-05-10T01:05:16;101257.00;;;17.69;35.67
53659;BME280;41524;35.624;139.698;2023-05-10T01:10:10;101249.00;;;18.40;34.93
53659;BME280;41524;35.624;139.698;2023-05-10T01:15:17;101239.00;;;20.09;32.50
53659;BME280;41524;35.624;139.698;2023-05-10T01:20:16;101239.00;;;19.93;32.64
53659;BME280;41524;35.624;139.698;2023-05-10T01:25:26;101235.00;;;18.67;33.69
53659;BME280;41524;35.624;139.698;2023-05-10T01:31:03;101226.00;;;20.61;32.28
53659;BME280;41524;35.624;139.698;2023-05-10T01:35:21;101225.00;;;20.21;33.08
53659;BME280;41524;35.624;139.698;2023-05-10T01:40:22;101224.00;;;20.44;32.08
53659;BME280;41524;35.624;139.698;2023-05-10T01:45:18;101218.00;;;18.74;32.91
53659;BME280;41524;35.624;139.698;2023-05-10T01:50:15;101209.00;;;19.33;33.47
53659;BME280;41524;35.624;139.698;2023-05-10T01:55:15;101204.00;;;20.09;31.84
53659;BME280;41524;35.624;139.698;2023-05-10T02:00:16;101196.00;;;19.84;31.60
53659;BME280;41524;35.624;139.698;2023-05-10T02:05:13;101193.00;;;20.16;31.83
53659;BME280;41524;35.624;139.698;2023-05-10T02:10:12;101189.00;;;20.10;30.68
53659;BME280;41524;35.624;139.698;2023-05-10T02:15:20;101183.00;;;18.96;31.60
53659;BME280;41524;35.624;139.698;2023-05-10T02:20:17;101185.00;;;20.65;30.88
53659;BME280;41524;35.624;139.698;2023-05-10T02:25:16;101181.00;;;20.11;29.99
53659;BME280;41524;35.624;139.698;2023-05-10T02:30:11;101180.00;;;18.91;31.51
53659;BME280;41524;35.624;139.698;2023-05-10T02:35:12;101176.00;;;21.39;29.43
53659;BME280;41524;35.624;139.698;2023-05-10T02:40:12;101176.00;;;18.56;31.98
53659;BME280;41524;35.624;139.698;2023-05-10T02:45:16;101166.00;;;20.04;30.42
53659;BME280;41524;35.624;139.698;2023-05-10T02:50:11;101150.00;;;21.24;30.20
53659;BME280;41524;35.624;139.698;2023-05-10T02:55:14;101141.00;;;20.03;31.97
53659;BME280;41524;35.624;139.698;2023-05-10T03:00:13;101130.00;;;20.95;32.00
53659;BME280;41524;35.624;139.698;2023-05-10T03:05:10;101124.00;;;20.50;30.91
53659;BME280;41524;35.624;139.698;2023-05-10T03:10:11;101114.00;;;20.74;31.62
53659;BME280;41524;35.624;139.698;2023-05-10T03:15:17;101104.00;;;21.14;31.17
53659;BME280;41524;35.624;139.698;2023-05-10T03:20:24;101102.00;;;20.69;31.56
53659;BME280;41524;35.624;139.698;2023-05-10T03:25:12;101087.00;;;20.80;31.98
53659;BME280;41524;35.624;139.698;2023-05-10T03:30:18;101091.00;;;21.08;30.23
53659;BME280;41524;35.624;139.698;2023-05-10T03:35:15;101086.00;;;20.55;30.66
53659;BME280;41524;35.624;139.698;2023-05-10T03:40:11;101075.00;;;20.99;30.73
53659;BME280;41524;35.624;139.698;2023-05-10T03:45:11;101074.00;;;20.77;30.34
53659;BME280;41524;35.624;139.698;2023-05-10T03:50:18;101070.00;;;21.41;30.98
53659;BME280;41524;35.624;139.698;2023-05-10T03:55:16;101062.00;;;20.48;31.48
53659;BME280;41524;35.624;139.698;2023-05-10T04:00:16;101057.00;;;21.01;31.25
53659;BME280;41524;35.624;139.698;2023-05-10T04:05:19;101043.00;;;20.75;31.55
53659;BME280;41524;35.624;139.698;2023-05-10T04:10:13;101038.00;;;20.84;31.53
53659;BME280;41524;35.624;139.698;2023-05-10T04:15:11;101039.00;;;20.09;31.86
53659;BME280;41524;35.624;139.698;2023-05-10T04:20:16;101037.00;;;20.25;31.89
53659;BME280;41524;35.624;139.698;2023-05-10T04:25:11;101023.00;;;20.41;31.14
53659;BME280;41524;35.624;139.698;2023-05-10T04:30:11;101022.00;;;20.60;30.80
53659;BME280;41524;35.624;139.698;2023-05-10T04:35:11;101021.00;;;20.82;31.40
53659;BME280;41524;35.624;139.698;2023-05-10T04:40:11;101020.00;;;19.97;31.18
53659;BME280;41524;35.624;139.698;2023-05-10T04:45:12;101017.00;;;19.86;31.67
53659;BME280;41524;35.624;139.698;2023-05-10T04:50:11;101007.00;;;21.46;31.13
53659;BME280;41524;35.624;139.698;2023-05-10T04:55:17;101005.00;;;21.80;30.28
53659;BME280;41524;35.624;139.698;2023-05-10T05:00:14;100999.00;;;21.22;30.81
53659;BME280;41524;35.624;139.698;2023-05-10T05:05:11;101008.00;;;21.17;30.32
53659;BME280;41524;35.624;139.698;2023-05-10T05:10:17;100999.00;;;20.69;30.29
53659;BME280;41524;35.624;139.698;2023-05-10T05:15:12;100999.00;;;21.04;30.02
53659;BME280;41524;35.624;139.698;2023-05-10T05:20:12;101004.00;;;21.44;29.17
53659;BME280;41524;35.624;139.698;2023-05-10T05:25:17;100997.00;;;22.08;28.27
53659;BME280;41524;35.624;139.698;2023-05-10T05:30:12;101000.00;;;21.14;28.79
53659;BME280;41524;35.624;139.698;2023-05-10T05:35:11;100999.00;;;21.01;27.92
53659;BME280;41524;35.624;139.698;2023-05-10T05:40:15;100995.00;;;21.27;27.53
53659;BME280;41524;35.624;139.698;2023-05-10T05:45:10;100987.00;;;20.97;27.61
53659;BME280;41524;35.624;139.698;2023-05-10T05:50:12;100987.00;;;20.35;28.29
53659;BME280;41524;35.624;139.698;2023-05-10T05:55:11;100985.00;;;20.39;28.72
53659;BME280;41524;35.624;139.698;2023-05-10T06:00:16;100986.00;;;20.68;27.84
53659;BME280;41524;35.624;139.698;2023-05-10T06:05:12;100984.00;;;21.40;27.01
53659;BME280;41524;35.624;139.698;2023-05-10T06:10:12;100977.00;;;19.81;29.45
53659;BME280;41524;35.624;139.698;2023-05-10T06:15:12;100977.00;;;21.48;28.26
53659;BME280;41524;35.624;139.698;2023-05-10T06:20:13;100976.00;;;20.34;28.02
53659;BME280;41524;35.624;139.698;2023-05-10T06:25:12;100988.00;;;22.03;28.38
53659;BME280;41524;35.624;139.698;2023-05-10T06:30:11;100980.00;;;20.40;29.78
53659;BME280;41524;35.624;139.698;2023-05-10T06:35:10;100980.00;;;22.03;29.44
53659;BME280;41524;35.624;139.698;2023-05-10T06:40:11;100989.00;;;21.47;27.38
53659;BME280;41524;35.624;139.698;2023-05-10T06:45:11;100998.00;;;21.11;27.02
53659;BME280;41524;35.624;139.698;2023-05-10T06:50:15;100994.00;;;21.17;27.75
53659;BME280;41524;35.624;139.698;2023-05-10T06:55:11;100996.00;;;20.90;25.41
53659;BME280;41524;35.624;139.698;2023-05-10T07:00:13;100993.00;;;21.85;25.12
53659;BME280;41524;35.624;139.698;2023-05-10T07:05:14;101002.00;;;20.73;28.09
53659;BME280;41524;35.624;139.698;2023-05-10T07:10:12;101007.00;;;20.21;31.76
53659;BME280;41524;35.624;139.698;2023-05-10T07:15:20;101004.00;;;19.97;32.89
53659;BME280;41524;35.624;139.698;2023-05-10T07:20:15;101002.00;;;20.27;33.01
53659;BME280;41524;35.624;139.698;2023-05-10T07:25:11;101016.00;;;19.57;34.67
53659;BME280;41524;35.624;139.698;2023-05-10T07:30:13;101018.00;;;19.81;35.32
53659;BME280;41524;35.624;139.698;2023-05-10T07:35:11;101017.00;;;19.82;35.07
53659;BME280;41524;35.624;139.698;2023-05-10T07:40:12;101023.00;;;19.29;35.48
53659;BME280;41524;35.624;139.698;2023-05-10T07:45:11;101032.00;;;18.77;36.71
53659;BME280;41524;35.624;139.698;2023-05-10T07:50:16;101032.00;;;18.97;36.51
53659;BME280;41524;35.624;139.698;2023-05-10T07:55:16;101034.00;;;20.83;34.87
53659;BME280;41524;35.624;139.698;2023-05-10T08:00:13;101049.00;;;18.91;36.60
53659;BME280;41524;35.624;139.698;2023-05-10T08:05:12;101055.00;;;19.45;36.21
53659;BME280;41524;35.624;139.698;2023-05-10T08:10:18;101061.00;;;19.39;36.17
53659;BME280;41524;35.624;139.698;2023-05-10T08:15:16;101065.00;;;18.61;37.46
53659;BME280;41524;35.624;139.698;2023-05-10T08:20:16;101071.00;;;19.29;37.37
53659;BME280;41524;35.624;139.698;2023-05-10T08:25:13;101078.00;;;20.15;37.59
53659;BME280;41524;35.624;139.698;2023-05-10T08:30:16;101084.00;;;17.66;39.74
53659;BME280;41524;35.624;139.698;2023-05-10T08:35:12;101088.00;;;18.15;40.01
53659;BME280;41524;35.624;139.698;2023-05-10T08:40:13;101089.00;;;18.48;39.65
53659;BME280;41524;35.624;139.698;2023-05-10T08:45:11;101107.00;;;18.28;39.96
53659;BME280;41524;35.624;139.698;2023-05-10T08:50:12;101110.00;;;18.37;39.42
53659;BME280;41524;35.624;139.698;2023-05-10T08:55:16;101119.00;;;17.35;42.79
53659;BME280;41524;35.624;139.698;2023-05-10T09:00:16;101131.00;;;18.10;42.54
53659;BME280;41524;35.624;139.698;2023-05-10T09:05:22;101142.00;;;17.57;43.77
53659;BME280;41524;35.624;139.698;2023-05-10T09:10:16;101145.00;;;17.32;45.18
53659;BME280;41524;35.624;139.698;2023-05-10T09:15:12;101145.00;;;17.41;46.03
53659;BME280;41524;35.624;139.698;2023-05-10T09:20:16;101162.00;;;17.53;46.57
53659;BME280;41524;35.624;139.698;2023-05-10T09:25:13;101165.00;;;17.37;47.28
53659;BME280;41524;35.624;139.698;2023-05-10T09:30:18;101181.00;;;16.81;48.72
53659;BME280;41524;35.624;139.698;2023-05-10T09:35:17;101193.00;;;16.15;50.82
53659;BME280;41524;35.624;139.698;2023-05-10T09:40:15;101206.00;;;16.78;50.43
53659;BME280;41524;35.624;139.698;2023-05-10T09:45:11;101208.00;;;16.65;50.55
53659;BME280;41524;35.624;139.698;2023-05-10T09:50:13;101216.00;;;16.32;50.85
53659;BME280;41524;35.624;139.698;2023-05-10T09:55:11;101224.00;;;15.65;51.89
53659;BME280;41524;35.624;139.698;2023-05-10T10:00:18;101231.00;;;16.76;49.77
53659;BME280;41524;35.624;139.698;2023-05-10T10:05:16;101247.00;;;15.56;51.91
53659;BME280;41524;35.624;139.698;2023-05-10T10:10:16;101247.00;;;15.57;52.34
53659;BME280;41524;35.624;139.698;2023-05-10T10:15:13;101255.00;;;16.73;50.06
53659;BME280;41524;35.624;139.698;2023-05-10T10:20:22;101257.00;;;17.00;49.81
53659;BME280;41524;35.624;139.698;2023-05-10T10:25:21;101261.00;;;17.38;48.26
53659;BME280;41524;35.624;139.698;2023-05-10T10:30:25;101270.00;;;16.91;49.28
53659;BME280;41524;35.624;139.698;2023-05-10T10:35:10;101286.00;;;15.92;51.05
53659;BME280;41524;35.624;139.698;2023-05-10T10:40:33;101289.00;;;16.47;50.51
53659;BME280;41524;35.624;139.698;2023-05-10T10:45:15;101292.00;;;15.45;52.34
53659;BME280;41524;35.624;139.698;2023-05-10T10:50:26;101304.00;;;15.89;52.13
53659;BME280;41524;35.624;139.698;2023-05-10T10:55:13;101314.00;;;16.46;51.10
53659;BME280;41524;35.624;139.698;2023-05-10T11:00:27;101324.00;;;15.71;52.94
53659;BME280;41524;35.624;139.698;2023-05-10T11:05:39;101323.00;;;18.05;48.89
53659;BME280;41524;35.624;139.698;2023-05-10T11:10:20;101332.00;;;16.48;51.41
53659;BME280;41524;35.624;139.698;2023-05-10T11:15:11;101345.00;;;17.26;50.04
53659;BME280;41524;35.624;139.698;2023-05-10T11:20:16;101348.00;;;15.96;52.49
53659;BME280;41524;35.624;139.698;2023-05-10T11:25:10;101357.00;;;16.24;52.33
53659;BME280;41524;35.624;139.698;2023-05-10T11:30:20;101361.00;;;16.82;51.51
53659;BME280;41524;35.624;139.698;2023-05-10T11:35:13;101363.00;;;16.60;51.80
53659;BME280;41524;35.624;139.698;2023-05-10T11:40:12;101360.00;;;17.15;50.35
53659;BME280;41524;35.624;139.698;2023-05-10T11:45:12;101356.00;;;17.24;49.05
53659;BME280;41524;35.624;139.698;2023-05-10T11:50:12;101360.00;;;18.05;49.33
53659;BME280;41524;35.624;139.698;2023-05-10T11:55:16;101371.00;;;16.89;50.49
53659;BME280;41524;35.624;139.698;2023-05-10T12:00:16;101375.00;;;17.14;49.15
53659;BME280;41524;35.624;139.698;2023-05-10T12:05:12;101378.00;;;17.27;49.09
53659;BME280;41524;35.624;139.698;2023-05-10T12:10:17;101378.00;;;17.17;48.82
53659;BME280;41524;35.624;139.698;2023-05-10T12:15:16;101376.00;;;18.48;47.87
53659;BME280;41524;35.624;139.698;2023-05-10T12:20:17;101382.00;;;18.31;48.27
53659;BME280;41524;35.624;139.698;2023-05-10T12:25:12;101390.00;;;18.01;48.14
53659;BME280;41524;35.624;139.698;2023-05-10T12:30:12;101390.00;;;18.02;48.02
53659;BME280;41524;35.624;139.698;2023-05-10T12:35:16;101389.00;;;19.46;46.54
53659;BME280;41524;35.624;139.698;2023-05-10T12:40:11;101395.00;;;18.83;46.95
53659;BME280;41524;35.624;139.698;2023-05-10T12:50:11;101410.00;;;16.98;49.43
53659;BME280;41524;35.624;139.698;2023-05-10T12:55:10;101403.00;;;18.17;47.86
53659;BME280;41524;35.624;139.698;2023-05-10T13:00:11;101407.00;;;17.35;48.76
53659;BME280;41524;35.624;139.698;2023-05-10T13:05:15;101414.00;;;18.37;47.29
53659;BME280;41524;35.624;139.698;2023-05-10T13:10:11;101413.00;;;16.92;50.48
53659;BME280;41524;35.624;139.698;2023-05-10T13:15:18;101407.00;;;18.41;48.02
53659;BME280;41524;35.624;139.698;2023-05-10T13:20:12;101409.00;;;17.93;49.04
53659;BME280;41524;35.624;139.698;2023-05-10T13:25:11;101420.00;;;17.36;49.93
53659;BME280;41524;35.624;139.698;2023-05-10T13:30:12;101422.00;;;17.67;48.82
53659;BME280;41524;35.624;139.698;2023-05-10T13:35:11;101420.00;;;17.86;48.55
53659;BME280;41524;35.624;139.698;2023-05-10T13:40:10;101428.00;;;17.61;49.29
53659;BME280;41524;35.624;139.698;2023-05-10T13:45:12;101434.00;;;17.55;49.06
53659;BME280;41524;35.624;139.698;2023-05-10T13:50:19;101440.00;;;17.74;48.44
53659;BME280;41524;35.624;139.698;2023-05-10T13:55:10;101442.00;;;17.21;48.77
53659;BME280;41524;35.624;139.698;2023-05-10T14:00:16;101443.00;;;17.60;47.71
53659;BME280;41524;35.624;139.698;2023-05-10T14:05:10;101441.00;;;17.93;47.10
53659;BME280;41524;35.624;139.698;2023-05-10T14:10:11;101440.00;;;16.81;49.16
53659;BME280;41524;35.624;139.698;2023-05-10T14:15:21;101440.00;;;16.74;50.18
53659;BME280;41524;35.624;139.698;2023-05-10T14:20:13;101445.00;;;16.47;51.98
53659;BME280;41524;35.624;139.698;2023-05-10T14:25:16;101438.00;;;17.48;49.96
53659;BME280;41524;35.624;139.698;2023-05-10T14:30:12;101436.00;;;16.58;52.59
53659;BME280;41524;35.624;139.698;2023-05-10T14:35:13;101435.00;;;16.64;53.28
53659;BME280;41524;35.624;139.698;2023-05-10T14:40:13;101438.00;;;17.62;52.02
53659;BME280;41524;35.624;139.698;2023-05-10T14:45:11;101438.00;;;16.59;54.54
53659;BME280;41524;35.624;139.698;2023-05-10T14:50:16;101439.00;;;16.28;55.82
53659;BME280;41524;35.624;139.698;2023-05-10T14:55:12;101437.00;;;15.66;57.60
53659;BME280;41524;35.624;139.698;2023-05-10T15:00:12;101439.00;;;16.59;55.77
53659;BME280;41524;35.624;139.698;2023-05-10T15:05:11;101441.00;;;17.15;54.82
53659;BME280;41524;35.624;139.698;2023-05-10T15:10:12;101445.00;;;17.69;53.91
53659;BME280;41524;35.624;139.698;2023-05-10T15:15:12;101450.00;;;16.41;56.38
53659;BME280;41524;35.624;139.698;2023-05-10T15:20:15;101447.00;;;16.22;57.01
53659;BME280;41524;35.624;139.698;2023-05-10T15:25:16;101451.00;;;17.27;54.53
53659;BME280;41524;35.624;139.698;2023-05-10T15:30:13;101447.00;;;17.16;54.49
53659;BME280;41524;35.624;139.698;2023-05-10T15:35:12;101447.00;;;15.56;58.21
53659;BME280;41524;35.624;139.698;2023-05-10T15:40:13;101451.00;;;15.83;57.48
53659;BME280;41524;35.624;139.698;2023-05-10T15:45:11;101461.00;;;16.65;55.75
53659;BME280;41524;35.624;139.698;2023-05-10T15:50:21;101467.00;;;17.42;53.80
53659;BME280;41524;35.624;139.698;2023-05-10T15:55:11;101469.00;;;16.95;54.06
53659;BME280;41524;35.624;139.698;2023-05-10T16:00:16;101467.00;;;16.91;54.82
53659;BME280;41524;35.624;139.698;2023-05-10T16:05:13;101464.00;;;16.31;56.45
53659;BME280;41524;35.624;139.698;2023-05-10T16:10:11;101465.00;;;16.54;55.86
53659;BME280;41524;35.624;139.698;2023-05-10T16:15:11;101469.00;;;16.43;56.06
53659;BME280;41524;35.624;139.698;2023-05-10T16:20:12;101468.00;;;16.85;54.72
53659;BME280;41524;35.624;139.698;2023-05-10T16:25:11;101467.00;;;16.69;54.77
53659;BME280;41524;35.624;139.698;2023-05-10T16:30:16;101461.00;;;16.79;54.73
53659;BME280;41524;35.624;139.698;2023-05-10T16:35:12;101460.00;;;17.26;53.93
53659;BME280;41524;35.624;139.698;2023-05-10T16:40:13;101454.00;;;17.33;54.08
53659;BME280;41524;35.624;139.698;2023-05-10T16:45:11;101460.00;;;16.15;56.38
53659;BME280;41524;35.624;139.698;2023-05-10T16:50:12;101457.00;;;16.34;56.43
53659;BME280;41524;35.624;139.698;2023-05-10T16:55:11;101455.00;;;16.55;55.79
53659;BME280;41524;35.624;139.698;2023-05-10T17:00:12;101457.00;;;16.52;55.84
53659;BME280;41524;35.624;139.698;2023-05-10T17:05:11;101462.00;;;17.13;55.51
53659;BME280;41524;35.624;139.698;2023-05-10T17:10:11;101461.00;;;15.76;57.99
53659;BME280;41524;35.624;139.698;2023-05-10T17:15:16;101467.00;;;15.95;57.86
53659;BME280;41524;35.624;139.698;2023-05-10T17:20:11;101473.00;;;16.12;57.28
53659;BME280;41524;35.624;139.698;2023-05-10T17:25:12;101478.00;;;15.20;59.32
53659;BME280;41524;35.624;139.698;2023-05-10T17:30:12;101474.00;;;15.05;60.26
53659;BME280;41524;35.624;139.698;2023-05-10T17:35:13;101479.00;;;15.88;59.07
53659;BME280;41524;35.624;139.698;2023-05-10T17:40:11;101484.00;;;15.20;59.89
53659;BME280;41524;35.624;139.698;2023-05-10T17:45:11;101483.00;;;15.60;59.27
53659;BME280;41524;35.624;139.698;2023-05-10T17:50:35;101480.00;;;15.65;59.10
53659;BME280;41524;35.624;139.698;2023-05-10T17:55:18;101484.00;;;15.80;58.99
53659;BME280;41524;35.624;139.698;2023-05-10T18:00:12;101488.00;;;15.39;59.62
53659;BME280;41524;35.624;139.698;2023-05-10T18:05:11;101492.00;;;14.21;63.20
53659;BME280;41524;35.624;139.698;2023-05-10T18:10:11;101497.00;;;15.31;60.74
53659;BME280;41524;35.624;139.698;2023-05-10T18:15:11;101491.00;;;15.24;60.45
53659;BME280;41524;35.624;139.698;2023-05-10T18:20:16;101496.00;;;16.09;58.57
53659;BME280;41524;35.624;139.698;2023-05-10T18:25:11;101500.00;;;16.11;58.85
53659;BME280;41524;35.624;139.698;2023-05-10T18:30:13;101508.00;;;15.20;60.37
53659;BME280;41524;35.624;139.698;2023-05-10T18:35:16;101510.00;;;14.94;60.52
53659;BME280;41524;35.624;139.698;2023-05-10T18:40:11;101513.00;;;14.36;61.22
53659;BME280;41524;35.624;139.698;2023-05-10T18:45:11;101514.00;;;15.19;59.67
53659;BME280;41524;35.624;139.698;2023-05-10T18:50:11;101513.00;;;15.23;59.87
53659;BME280;41524;35.624;139.698;2023-05-10T18:55:12;101516.00;;;15.41;58.79
53659;BME280;41524;35.624;139.698;2023-05-10T19:00:18;101523.00;;;15.36;58.32
53659;BME280;41524;35.624;139.698;2023-05-10T19:05:14;101521.00;;;14.63;58.88
53659;BME280;41524;35.624;139.698;2023-05-10T19:10:11;101531.00;;;13.39;61.61
53659;BME280;41524;35.624;139.698;2023-05-10T19:15:11;101533.00;;;13.73;59.31
53659;BME280;41524;35.624;139.698;2023-05-10T19:20:14;101532.00;;;15.52;55.71
53659;BME280;41524;35.624;139.698;2023-05-10T19:30:18;101535.00;;;15.59;54.95
53659;BME280;41524;35.624;139.698;2023-05-10T19:35:11;101542.00;;;15.37;55.30
53659;BME280;41524;35.624;139.698;2023-05-10T19:40:12;101555.00;;;14.90;56.25
53659;BME280;41524;35.624;139.698;2023-05-10T19:45:16;101569.00;;;13.17;60.71
53659;BME280;41524;35.624;139.698;2023-05-10T19:50:11;101569.00;;;15.01;57.68
53659;BME280;41524;35.624;139.698;2023-05-10T19:55:26;101579.00;;;14.02;59.41
53659;BME280;41524;35.624;139.698;2023-05-10T20:00:15;101584.00;;;14.43;58.56
53659;BME280;41524;35.624;139.698;2023-05-10T20:05:16;101595.00;;;14.20;58.59
53659;BME280;41524;35.624;139.698;2023-05-10T20:10:14;101589.00;;;14.92;55.95
53659;BME280;41524;35.624;139.698;2023-05-10T20:15:11;101598.00;;;13.52;58.71
53659;BME280;41524;35.624;139.698;2023-05-10T20:20:12;101595.00;;;15.23;53.87
53659;BME280;41524;35.624;139.698;2023-05-10T20:25:11;101603.00;;;14.51;53.19
53659;BME280;41524;35.624;139.698;2023-05-10T20:30:12;101617.00;;;14.62;51.86
53659;BME280;41524;35.624;139.698;2023-05-10T20:35:11;101636.00;;;14.43;50.46
53659;BME280;41524;35.624;139.698;2023-05-10T20:40:16;101643.00;;;14.09;52.22
53659;BME280;41524;35.624;139.698;2023-05-10T20:45:19;101638.00;;;13.84;52.64
53659;BME280;41524;35.624;139.698;2023-05-10T20:50:12;101652.00;;;14.31;50.36
53659;BME280;41524;35.624;139.698;2023-05-10T20:55:12;101659.00;;;15.32;49.23
53659;BME280;41524;35.624;139.698;2023-05-10T21:00:21;101674.00;;;14.58;51.85
53659;BME280;41524;35.624;139.698;2023-05-10T21:05:10;101678.00;;;15.15;51.43
53659;BME280;41524;35.624;139.698;2023-05-10T21:10:11;101672.00;;;16.06;50.28
53659;BME280;41524;35.624;139.698;2023-05-10T21:15:13;101687.00;;;15.05;52.93
53659;BME280;41524;35.624;139.698;2023-05-10T21:20:12;101691.00;;;13.57;56.90
53659;BME280;41524;35.624;139.698;2023-05-10T21:25:12;101690.00;;;14.50;55.70
53659;BME280;41524;35.624;139.698;2023-05-10T21:30:16;101698.00;;;14.36;56.51
53659;BME280;41524;35.624;139.698;2023-05-10T21:35:11;101707.00;;;15.00;55.93
53659;BME280;41524;35.624;139.698;2023-05-10T21:40:17;101708.00;;;15.21;55.11
53659;BME280;41524;35.624;139.698;2023-05-10T21:45:11;101709.00;;;15.90;55.71
53659;BME280;41524;35.624;139.698;2023-05-10T21:50:12;101718.00;;;14.23;58.22
53659;BME280;41524;35.624;139.698;2023-05-10T21:55:16;101723.00;;;15.24;57.80
53659;BME280;41524;35.624;139.698;2023-05-10T22:00:12;101727.00;;;14.66;56.18
53659;BME280;41524;35.624;139.698;2023-05-10T22:05:10;101725.00;;;16.02;53.53
53659;BME280;41524;35.624;139.698;2023-05-10T22:10:16;101725.00;;;14.72;54.67
53659;BME280;41524;35.624;139.698;2023-05-10T22:15:21;101724.00;;;16.18;52.46
53659;BME280;41524;35.624;139.698;2023-05-10T22:20:11;101723.00;;;15.77;51.92
53659;BME280;41524;35.624;139.698;2023-05-10T22:25:16;101721.00;;;15.91;51.83
53659;BME280;41524;35.624;139.698;2023-05-10T22:30:17;101713.00;;;15.69;51.40
53659;BME280;41524;35.624;139.698;2023-05-10T22:35:11;101720.00;;;15.63;50.95
53659;BME280;41524;35.624;139.698;2023-05-10T22:40:15;101729.00;;;14.99;53.40
53659;BME280;41524;35.624;139.698;2023-05-10T22:45:12;101727.00;;;16.03;51.36
53659;BME280;41524;35.624;139.698;2023-05-10T22:50:12;101721.00;;;16.84;48.40
53659;BME280;41524;35.624;139.698;2023-05-10T22:55:11;101720.00;;;15.73;49.81
53659;BME280;41524;35.624;139.698;2023-05-10T23:00:17;101713.00;;;15.54;48.59
53659;BME280;41524;35.624;139.698;2023-05-10T23:05:16;101712.00;;;16.41;47.33
53659;BME280;41524;35.624;139.698;2023-05-10T23:10:16;101709.00;;;16.37;47.88
53659;BME280;41524;35.624;139.698;2023-05-10T23:15:16;101713.00;;;14.98;49.35
53659;BME280;41524;35.624;139.698;2023-05-10T23:20:12;101713.00;;;16.01;47.11
53659;BME280;41524;35.624;139.698;2023-05-10T23:25:11;101711.00;;;16.33;45.82
53659;BME280;41524;35.624;139.698;2023-05-10T23:30:12;101709.00;;;17.19;44.56
53659;BME280;41524;35.624;139.698;2023-05-10T23:35:11;101704.00;;;17.31;41.96
53659;BME280;41524;35.624;139.698;2023-05-10T23:40:11;101705.00;;;17.85;40.05
53659;BME280;41524;35.624;139.698;2023-05-10T23:45:10;101701.00;;;17.57;40.73
53659;BME280;41524;35.624;139.698;2023-05-10T23:50:12;101700.00;;;17.83;39.62
53659;BME280;41524;35.624;139.698;2023-05-10T23:55:11;101700.00;;;15.87;40.42
